createdAt,value
2022-08-26T00:00:48.186Z,3.23
2022-08-26T00:03:15.331Z,3.47
2022-08-26T00:05:44.088Z,3.00
2022-08-26T00:08:13.023Z,3.70
2022-08-26T00:10:40.424Z,4.73
2022-08-26T00:13:09.893Z,3.27
2022-08-26T00:15:37.272Z,3.60
2022-08-26T00:18:04.350Z,3.50
2022-08-26T00:20:43.640Z,3.13
2022-08-26T00:23:10.209Z,2.67
2022-08-26T00:25:37.209Z,3.23
2022-08-26T00:28:12.571Z,3.20
2022-08-26T00:30:40.776Z,2.70
2022-08-26T00:33:07.919Z,2.90
2022-08-26T00:35:34.957Z,2.70
2022-08-26T00:38:03.502Z,3.40
2022-08-26T00:40:33.179Z,2.83
2022-08-26T00:43:01.096Z,3.53
2022-08-26T00:45:37.857Z,3.27
2022-08-26T00:48:06.065Z,4.10
2022-08-26T00:50:37.922Z,3.47
2022-08-26T00:53:08.014Z,3.33
2022-08-26T00:55:40.349Z,3.50
2022-08-26T00:58:08.228Z,3.70
2022-08-26T01:00:36.163Z,3.20
2022-08-26T01:03:05.278Z,3.53
2022-08-26T01:05:34.067Z,3.37
2022-08-26T01:08:00.643Z,4.00
2022-08-26T01:10:31.079Z,4.53
2022-08-26T01:13:01.292Z,4.13
2022-08-26T01:15:34.293Z,3.27
2022-08-26T01:18:03.625Z,3.80
2022-08-26T01:20:36.233Z,3.23
2022-08-26T01:23:06.369Z,3.77
2022-08-26T01:25:39.239Z,3.17
2022-08-26T01:28:09.922Z,3.90
2022-08-26T01:30:38.273Z,3.60
2022-08-26T01:33:10.553Z,3.67
2022-08-26T01:35:38.253Z,3.30
2022-08-26T01:38:06.312Z,3.50
2022-08-26T01:40:37.162Z,3.60
2022-08-26T01:43:07.102Z,3.67
2022-08-26T01:45:36.679Z,3.70
2022-08-26T01:48:07.412Z,3.60
2022-08-26T01:50:36.154Z,4.10
2022-08-26T01:53:07.042Z,4.00
2022-08-26T01:55:37.353Z,3.93
2022-08-26T01:58:07.900Z,4.00
2022-08-26T02:00:36.000Z,3.27
2022-08-26T02:03:05.390Z,3.93
2022-08-26T02:05:33.018Z,11.83
2022-08-26T02:07:59.571Z,3.33
2022-08-26T02:10:26.598Z,3.50
2022-08-26T02:12:54.525Z,3.97
2022-08-26T02:15:21.290Z,3.63
2022-08-26T02:17:48.015Z,3.67
2022-08-26T02:20:20.544Z,4.40
2022-08-26T02:22:48.204Z,5.27
2022-08-26T02:25:21.379Z,3.80
2022-08-26T02:27:49.953Z,4.53
2022-08-26T02:30:21.155Z,4.37
2022-08-26T02:32:49.591Z,3.53
2022-08-26T02:35:18.174Z,3.40
2022-08-26T02:37:47.399Z,3.50
2022-08-26T02:40:19.946Z,3.77
2022-08-26T02:42:48.337Z,3.60
2022-08-26T02:45:14.923Z,3.87
2022-08-26T02:47:45.748Z,4.23
2022-08-26T02:50:13.314Z,3.77
2022-08-26T02:52:40.044Z,3.43
2022-08-26T02:55:07.749Z,3.97
2022-08-26T02:57:34.747Z,4.07
2022-08-26T03:00:01.865Z,5.70
2022-08-26T03:02:29.447Z,4.00
2022-08-26T03:05:01.984Z,3.87
2022-08-26T03:07:29.167Z,3.77
2022-08-26T03:09:56.706Z,3.57
2022-08-26T03:12:23.973Z,3.67
2022-08-26T03:14:52.593Z,3.87
2022-08-26T03:17:19.172Z,3.93
2022-08-26T03:19:45.737Z,4.40
2022-08-26T03:22:14.493Z,3.93
2022-08-26T03:24:41.312Z,4.20
2022-08-26T03:27:12.639Z,3.60
2022-08-26T03:29:39.552Z,3.90
2022-08-26T03:32:06.269Z,3.73
2022-08-26T03:34:33.242Z,4.50
2022-08-26T03:36:59.898Z,4.53
2022-08-26T03:39:28.522Z,3.83
2022-08-26T03:41:58.322Z,4.30
2022-08-26T03:44:24.926Z,4.10
2022-08-26T03:46:51.713Z,3.53
2022-08-26T03:49:18.355Z,3.83
2022-08-26T03:51:45.064Z,3.63
2022-08-26T03:54:12.209Z,3.60
2022-08-26T03:56:40.235Z,3.67
2022-08-26T03:59:07.679Z,4.20
2022-08-26T04:01:35.097Z,3.83
2022-08-26T04:04:01.747Z,4.63
2022-08-26T04:06:33.040Z,4.10
2022-08-26T04:09:01.579Z,3.90
2022-08-26T04:11:30.457Z,3.97
2022-08-26T04:14:04.742Z,4.10
2022-08-26T04:16:31.935Z,4.80
2022-08-26T04:18:58.857Z,3.83
2022-08-26T04:21:27.076Z,4.30
2022-08-26T04:23:53.861Z,4.17
2022-08-26T04:26:22.007Z,3.80
2022-08-26T04:28:49.450Z,4.23
2022-08-26T04:31:18.477Z,4.20
2022-08-26T04:33:47.742Z,4.53
2022-08-26T04:36:17.164Z,4.27
2022-08-26T04:38:43.972Z,4.47
2022-08-26T04:41:14.909Z,3.80
2022-08-26T04:43:42.703Z,3.97
2022-08-26T04:46:09.660Z,4.40
2022-08-26T04:48:41.297Z,4.70
2022-08-26T04:51:07.979Z,3.73
2022-08-26T04:53:34.698Z,4.27
2022-08-26T04:56:01.662Z,4.40
2022-08-26T04:58:31.709Z,4.10
2022-08-26T05:00:58.266Z,4.53
2022-08-26T05:03:25.450Z,4.00
2022-08-26T05:05:54.478Z,4.47
2022-08-26T05:08:22.282Z,5.40
2022-08-26T05:10:50.925Z,3.90
2022-08-26T05:13:20.586Z,3.87
2022-08-26T05:15:48.228Z,5.00
2022-08-26T05:18:16.973Z,4.47
2022-08-26T05:20:47.567Z,4.60
2022-08-26T05:23:16.252Z,4.10
2022-08-26T05:25:44.566Z,4.20
2022-08-26T05:28:12.305Z,4.40
2022-08-26T05:30:39.820Z,3.70
2022-08-26T05:33:07.912Z,4.37
2022-08-26T05:35:36.061Z,5.73
2022-08-26T05:38:07.305Z,4.50
2022-08-26T05:40:41.888Z,4.03
2022-08-26T05:43:09.223Z,4.53
2022-08-26T05:45:36.653Z,5.13
2022-08-26T05:48:03.745Z,4.70
2022-08-26T05:50:36.572Z,6.87
2022-08-26T05:53:05.797Z,4.60
2022-08-26T05:55:32.369Z,4.50
2022-08-26T05:58:00.487Z,4.53
2022-08-26T06:00:29.375Z,5.23
2022-08-26T06:02:56.025Z,5.13
2022-08-26T06:05:22.671Z,4.77
2022-08-26T06:07:49.347Z,5.10
2022-08-26T06:10:33.117Z,4.20
2022-08-26T06:13:06.203Z,5.10
2022-08-26T06:15:41.996Z,9.43
2022-08-26T06:18:08.844Z,5.50
2022-08-26T06:20:35.666Z,7.23
2022-08-26T06:23:03.898Z,6.00
2022-08-26T06:25:31.015Z,9.63
2022-08-26T06:27:57.575Z,6.60
2022-08-26T06:30:26.351Z,5.93
2022-08-26T06:32:53.279Z,5.57
2022-08-26T06:35:19.914Z,7.67
2022-08-26T06:37:47.600Z,5.90
2022-08-26T06:40:14.224Z,9.33
2022-08-26T06:42:40.786Z,7.77
2022-08-26T06:45:08.442Z,7.27
2022-08-26T06:47:36.520Z,8.77
2022-08-26T06:50:03.372Z,4.57
2022-08-26T06:52:29.921Z,4.43
2022-08-26T06:54:56.482Z,4.03
2022-08-26T06:57:23.048Z,4.87
2022-08-26T06:59:51.197Z,5.13
2022-08-26T07:02:17.952Z,4.60
2022-08-26T07:04:47.965Z,5.00
2022-08-26T07:07:15.449Z,4.93
2022-08-26T07:09:41.992Z,7.07
2022-08-26T07:12:08.568Z,7.70
2022-08-26T07:14:35.906Z,5.13
2022-08-26T07:17:02.434Z,4.57
2022-08-26T07:19:30.876Z,4.17
2022-08-26T07:22:00.489Z,4.50
2022-08-26T07:24:29.021Z,4.63
2022-08-26T07:26:59.432Z,4.00
2022-08-26T07:29:25.980Z,4.53
2022-08-26T07:31:53.429Z,4.90
2022-08-26T07:34:23.272Z,5.10
2022-08-26T07:36:49.892Z,5.27
2022-08-26T07:39:17.906Z,5.53
2022-08-26T07:41:44.470Z,5.10
2022-08-26T07:44:13.653Z,4.80
2022-08-26T07:46:41.106Z,4.37
2022-08-26T07:49:11.387Z,4.07
2022-08-26T07:51:38.194Z,5.53
2022-08-26T07:54:05.885Z,4.93
2022-08-26T07:56:33.892Z,4.50
2022-08-26T07:59:00.482Z,4.70
2022-08-26T08:01:28.071Z,6.90
2022-08-26T08:03:55.265Z,4.40
2022-08-26T08:06:27.281Z,3.70
2022-08-26T08:08:55.438Z,5.40
2022-08-26T08:11:23.168Z,5.97
2022-08-26T08:13:55.996Z,4.73
2022-08-26T08:16:23.297Z,3.90
2022-08-26T08:18:51.166Z,4.80
2022-08-26T08:21:21.676Z,4.37
2022-08-26T08:23:51.167Z,5.53
2022-08-26T08:26:17.747Z,5.17
2022-08-26T08:28:45.241Z,5.47
2022-08-26T08:31:38.579Z,6.20
2022-08-26T08:34:07.595Z,11.63
2022-08-26T08:36:36.133Z,5.00
2022-08-26T08:39:03.584Z,4.83
2022-08-26T08:41:46.574Z,4.20
2022-08-26T08:44:16.330Z,13.90
2022-08-26T08:46:45.373Z,4.23
2022-08-26T08:49:14.642Z,4.33
2022-08-26T08:51:45.530Z,4.17
2022-08-26T08:54:13.107Z,4.43
2022-08-26T08:56:44.295Z,3.57
2022-08-26T08:59:15.182Z,5.10
2022-08-26T09:01:56.762Z,4.30
2022-08-26T09:04:51.078Z,4.37
2022-08-26T09:07:22.198Z,5.57
2022-08-26T09:09:51.227Z,4.50
2022-08-26T09:12:21.381Z,5.33
2022-08-26T09:15:01.491Z,5.63
2022-08-26T09:17:39.489Z,4.87
2022-08-26T09:20:25.305Z,4.37
2022-08-26T09:22:51.855Z,4.33
2022-08-26T09:25:18.693Z,4.30
2022-08-26T09:27:47.178Z,4.33
2022-08-26T09:30:28.279Z,3.97
2022-08-26T09:33:02.738Z,3.93
2022-08-26T09:35:34.261Z,4.27
2022-08-26T09:38:00.963Z,5.43
2022-08-26T09:40:31.043Z,4.17
2022-08-26T09:43:22.155Z,4.17
2022-08-26T09:45:54.921Z,4.23
2022-08-26T09:48:30.076Z,4.90
2022-08-26T09:50:59.023Z,3.63
2022-08-26T09:53:28.723Z,4.30
2022-08-26T09:56:16.718Z,4.33
2022-08-26T09:58:45.991Z,5.17
2022-08-26T10:01:25.402Z,3.33
2022-08-26T10:04:02.965Z,16.13
2022-08-26T10:06:29.878Z,8.50
2022-08-26T10:09:00.097Z,9.63
2022-08-26T10:11:37.004Z,5.47
2022-08-26T10:14:10.230Z,5.57
2022-08-26T10:16:49.509Z,5.15
2022-08-26T10:19:22.322Z,5.57
2022-08-26T10:21:54.158Z,5.70
2022-08-26T10:24:25.804Z,5.63
2022-08-26T10:27:00.671Z,4.30
2022-08-26T10:29:33.164Z,3.50
2022-08-26T10:32:04.285Z,4.28
2022-08-26T10:34:33.487Z,3.45
2022-08-26T10:37:15.815Z,4.05
2022-08-26T10:39:49.616Z,4.57
2022-08-26T10:42:29.659Z,3.80
2022-08-26T10:45:01.685Z,4.20
2022-08-26T10:47:34.504Z,4.20
2022-08-26T10:50:03.586Z,3.97
2022-08-26T10:52:42.743Z,3.92
2022-08-26T10:55:16.745Z,3.78
2022-08-26T10:57:50.833Z,4.05
2022-08-26T11:00:23.046Z,4.68
2022-08-26T11:02:59.248Z,4.65
2022-08-26T11:05:28.268Z,5.03
2022-08-26T11:08:29.920Z,3.88
2022-08-26T11:10:59.270Z,4.90
2022-08-26T11:14:03.791Z,6.20
2022-08-26T11:16:37.454Z,5.13
2022-08-26T11:19:11.737Z,4.00
2022-08-26T11:21:49.507Z,6.22
2022-08-26T11:24:46.476Z,5.90
2022-08-26T11:28:01.078Z,5.28
2022-08-26T11:30:46.443Z,3.67
2022-08-26T11:33:54.557Z,4.53
2022-08-26T11:36:51.738Z,4.65
2022-08-26T11:39:23.264Z,4.07
2022-08-26T11:41:52.956Z,3.65
2022-08-26T11:44:22.263Z,3.33
2022-08-26T11:46:53.302Z,3.40
2022-08-26T11:49:20.819Z,5.55
2022-08-26T11:51:48.734Z,4.00
2022-08-26T11:54:29.246Z,3.92
2022-08-26T11:57:09.288Z,4.78
2022-08-26T11:59:40.046Z,3.17
2022-08-26T12:40:55.654Z,5.87
2022-08-26T12:43:43.288Z,4.47
2022-08-26T12:46:12.549Z,4.10
2022-08-26T12:48:42.761Z,4.00
2022-08-26T12:51:19.255Z,5.00
2022-08-26T12:53:45.940Z,6.13
2022-08-26T12:56:25.588Z,4.77
2022-08-26T12:59:04.782Z,7.83
2022-08-26T13:01:38.025Z,5.07
2022-08-26T13:04:05.099Z,5.03
2022-08-26T13:06:31.773Z,4.17
2022-08-26T13:08:59.841Z,3.63
2022-08-26T13:11:29.675Z,3.03
2022-08-26T13:13:58.630Z,2.93
2022-08-26T13:16:25.932Z,3.87
2022-08-26T13:18:55.683Z,4.70
2022-08-26T13:21:25.259Z,3.13
2022-08-26T13:23:52.411Z,3.83
2022-08-26T13:26:19.867Z,4.40
2022-08-26T13:29:01.539Z,4.47
2022-08-26T13:31:30.900Z,4.63
2022-08-26T13:33:57.679Z,3.40
2022-08-26T13:36:24.378Z,4.97
2022-08-26T13:38:52.095Z,3.93
2022-08-26T13:41:18.840Z,3.40
2022-08-26T13:43:58.171Z,4.47
2022-08-26T13:46:25.773Z,3.60
2022-08-26T13:48:52.365Z,4.20
2022-08-26T13:51:18.939Z,3.17
2022-08-26T13:53:45.529Z,3.63
2022-08-26T13:56:12.095Z,3.90
2022-08-26T13:58:38.659Z,3.80
2022-08-26T14:01:07.045Z,4.17
2022-08-26T14:03:33.688Z,4.03
2022-08-26T14:06:00.397Z,5.03
2022-08-26T14:08:27.196Z,4.27
2022-08-26T14:10:53.785Z,5.10
2022-08-26T14:13:20.596Z,5.00
2022-08-26T14:15:47.358Z,5.33
2022-08-26T14:18:18.083Z,5.07
2022-08-26T14:20:48.105Z,4.20
2022-08-26T14:23:14.757Z,3.90
2022-08-26T14:25:41.598Z,4.87
2022-08-26T14:28:08.185Z,4.20
2022-08-26T14:30:34.947Z,4.23
2022-08-26T14:33:01.515Z,4.40
2022-08-26T14:35:30.583Z,4.50
2022-08-26T14:37:57.793Z,4.13
2022-08-26T14:40:28.417Z,4.10
2022-08-26T14:42:55.053Z,4.23
2022-08-26T14:45:27.142Z,3.90
2022-08-26T14:47:54.806Z,3.80
2022-08-26T14:50:23.954Z,4.53
2022-08-26T14:52:52.201Z,3.70
2022-08-26T14:55:18.798Z,4.20
2022-08-26T14:57:45.343Z,6.27
2022-08-26T15:00:12.457Z,4.93
2022-08-26T15:02:39.071Z,5.27
2022-08-26T15:05:06.656Z,5.83
2022-08-26T15:07:33.200Z,4.70
2022-08-26T15:10:01.204Z,4.77
2022-08-26T15:12:27.745Z,5.20
2022-08-26T15:14:54.304Z,4.03
2022-08-26T15:17:20.840Z,4.70
2022-08-26T15:19:47.375Z,4.03
2022-08-26T15:22:13.896Z,4.10
2022-08-26T15:24:40.489Z,3.67
2022-08-26T15:27:08.358Z,4.20
2022-08-26T15:29:36.432Z,3.63
2022-08-26T15:32:03.854Z,3.90
2022-08-26T15:34:30.416Z,4.30
2022-08-26T15:36:56.968Z,3.50
2022-08-26T15:39:23.992Z,3.50
2022-08-26T15:41:50.582Z,3.43
2022-08-26T15:44:18.529Z,3.80
2022-08-26T15:46:47.057Z,3.50
2022-08-26T15:49:18.317Z,3.20
2022-08-26T15:51:46.303Z,3.20
2022-08-26T15:54:13.656Z,3.53
2022-08-26T15:56:40.273Z,3.47
2022-08-26T15:59:07.676Z,3.37
2022-08-26T16:01:36.427Z,3.10
2022-08-26T16:04:03.940Z,3.07
2022-08-26T16:06:33.147Z,4.80
2022-08-26T16:09:00.314Z,3.10
2022-08-26T16:11:27.656Z,2.60
2022-08-26T16:13:54.740Z,2.90
2022-08-26T16:16:21.700Z,3.10
2022-08-26T16:18:49.654Z,3.43
2022-08-26T16:21:17.057Z,3.37
2022-08-26T16:23:45.384Z,3.33
2022-08-26T16:26:14.415Z,2.87
2022-08-26T16:28:41.121Z,3.70
2022-08-26T16:31:10.643Z,3.63
2022-08-26T16:33:37.300Z,3.43
2022-08-26T16:36:06.491Z,3.57
2022-08-26T16:38:33.818Z,3.80
2022-08-26T16:41:00.743Z,4.70
2022-08-26T16:43:27.615Z,4.47
2022-08-26T16:45:54.351Z,4.90
2022-08-26T16:48:21.009Z,4.93
2022-08-26T16:50:47.553Z,4.80
2022-08-26T16:53:15.761Z,7.13
2022-08-26T16:55:44.329Z,5.33
2022-08-26T16:58:11.019Z,4.70
2022-08-26T17:00:37.823Z,4.13
2022-08-26T17:03:04.657Z,4.73
2022-08-26T17:05:31.287Z,4.87
2022-08-26T17:07:59.918Z,3.73
2022-08-26T17:10:28.915Z,3.60
2022-08-26T17:12:56.435Z,4.17
2022-08-26T17:15:23.272Z,4.13
2022-08-26T17:17:49.875Z,3.83
2022-08-26T17:20:17.858Z,3.70
2022-08-26T17:22:46.506Z,3.70
2022-08-26T17:25:15.544Z,4.10
2022-08-26T17:27:43.462Z,6.67
2022-08-26T17:30:11.028Z,5.57
2022-08-26T17:32:37.580Z,3.73
2022-08-26T17:35:05.579Z,4.67
2022-08-26T17:37:32.314Z,4.57
2022-08-26T17:39:58.909Z,4.13
2022-08-26T17:42:31.310Z,3.33
2022-08-26T17:44:59.916Z,3.60
2022-08-26T17:47:26.578Z,4.10
2022-08-26T17:49:53.135Z,4.10
2022-08-26T17:52:19.719Z,4.50
2022-08-26T17:54:46.288Z,4.50
2022-08-26T17:57:12.845Z,4.73
2022-08-26T17:59:40.989Z,5.30
2022-08-26T18:02:09.086Z,5.20
2022-08-26T18:04:35.669Z,4.90
2022-08-26T18:07:02.216Z,5.40
2022-08-26T18:09:29.831Z,5.43
2022-08-26T18:11:56.367Z,5.60
2022-08-26T18:14:22.910Z,5.70
2022-08-26T18:16:49.479Z,5.57
2022-08-26T18:19:17.438Z,6.20
2022-08-26T18:21:44.274Z,6.50
2022-08-26T18:24:14.050Z,7.60
2022-08-26T18:26:42.485Z,8.70
2022-08-26T18:29:09.015Z,9.23
2022-08-26T18:31:35.596Z,10.23
2022-08-26T18:34:02.792Z,11.00
2022-08-26T18:36:33.756Z,10.70
2022-08-26T18:39:01.584Z,11.77
2022-08-26T18:41:30.990Z,11.30
2022-08-26T18:43:58.380Z,11.60
2022-08-26T18:46:27.157Z,10.97
2022-08-26T18:48:54.473Z,12.10
2022-08-26T18:51:24.118Z,11.30
2022-08-26T18:53:52.317Z,11.23
2022-08-26T18:56:19.156Z,11.23
2022-08-26T18:58:45.761Z,11.53
2022-08-26T19:01:12.890Z,11.60
2022-08-26T19:03:39.710Z,10.73
2022-08-26T19:06:06.822Z,9.83
2022-08-26T19:08:33.387Z,8.67
2022-08-26T19:11:01.375Z,8.37
2022-08-26T19:13:27.949Z,8.23
2022-08-26T19:15:54.480Z,8.77
2022-08-26T19:18:21.033Z,8.00
2022-08-26T19:20:47.582Z,8.00
2022-08-26T19:23:30.933Z,7.77
2022-08-26T19:25:58.765Z,7.60
2022-08-26T19:28:26.700Z,7.60
2022-08-26T19:30:53.627Z,6.83
2022-08-26T19:33:20.321Z,7.00
2022-08-26T19:35:47.091Z,7.17
2022-08-26T19:38:14.372Z,7.10
2022-08-26T19:40:41.601Z,7.13
2022-08-26T19:43:08.737Z,6.63
2022-08-26T19:45:39.779Z,7.70
2022-08-26T19:48:06.716Z,6.87
2022-08-26T19:50:34.578Z,6.83
2022-08-26T19:53:01.837Z,6.73
2022-08-26T19:55:28.487Z,6.90
2022-08-26T19:57:55.126Z,6.73
2022-08-26T20:00:24.245Z,6.77
2022-08-26T20:02:53.627Z,7.33
2022-08-26T20:05:23.037Z,7.00
2022-08-26T20:07:50.387Z,7.53
2022-08-26T20:10:20.627Z,6.77
2022-08-26T20:12:47.942Z,6.97
2022-08-26T20:15:15.043Z,6.93
2022-08-26T20:17:41.709Z,6.80
2022-08-26T20:20:26.922Z,6.83
2022-08-26T20:22:57.927Z,7.47
2022-08-26T20:25:25.148Z,7.90
2022-08-26T20:27:51.852Z,7.70
2022-08-26T20:30:18.399Z,7.53
2022-08-26T20:32:45.082Z,8.17
2022-08-26T20:35:13.877Z,7.63
2022-08-26T20:37:41.033Z,6.73
2022-08-26T20:40:10.314Z,7.93
2022-08-26T20:42:36.938Z,8.43
2022-08-26T20:45:04.198Z,8.53
2022-08-26T20:47:30.900Z,8.77
2022-08-26T20:49:57.750Z,7.70
2022-08-26T20:52:25.702Z,8.10
2022-08-26T20:54:52.359Z,8.73
2022-08-26T20:57:18.924Z,8.27
2022-08-26T20:59:45.553Z,8.10
2022-08-26T21:02:12.156Z,7.87
2022-08-26T21:04:38.800Z,7.97
2022-08-26T21:07:05.408Z,8.70
2022-08-26T21:09:34.306Z,8.77
2022-08-26T21:12:01.087Z,7.83
2022-08-26T21:14:27.981Z,8.43
2022-08-26T21:16:54.699Z,8.53
2022-08-26T21:19:21.881Z,8.67
2022-08-26T21:21:48.541Z,8.80
2022-08-26T21:24:15.954Z,9.47
2022-08-26T21:26:44.663Z,9.77
2022-08-26T21:29:11.276Z,8.83
2022-08-26T21:31:44.950Z,10.00
2022-08-26T21:34:12.708Z,9.20
2022-08-26T21:36:39.314Z,8.87
2022-08-26T21:39:11.268Z,8.10
2022-08-26T21:41:38.839Z,8.87
2022-08-26T21:44:07.223Z,9.10
2022-08-26T21:46:33.785Z,9.07
2022-08-26T21:49:01.675Z,8.63
2022-08-26T21:51:31.057Z,8.83
2022-08-26T21:53:59.072Z,9.93
2022-08-26T21:56:27.949Z,9.87
2022-08-26T21:58:55.820Z,9.43
2022-08-26T22:01:26.275Z,9.03
2022-08-26T22:03:53.290Z,9.80
2022-08-26T22:06:22.928Z,10.43
2022-08-26T22:08:49.693Z,9.40
2022-08-26T22:11:16.424Z,10.03
2022-08-26T22:13:44.014Z,10.27
2022-08-26T22:16:10.648Z,10.13
2022-08-26T22:18:39.427Z,9.43
2022-08-26T22:21:09.738Z,9.57
2022-08-26T22:23:38.160Z,9.97
2022-08-26T22:26:05.131Z,9.37
2022-08-26T22:28:31.881Z,9.50
2022-08-26T22:30:58.584Z,9.70
2022-08-26T22:33:25.490Z,9.30
2022-08-26T22:35:54.020Z,12.67
2022-08-26T22:38:21.330Z,9.70
2022-08-26T22:40:50.106Z,9.70
2022-08-26T22:43:17.585Z,9.63
2022-08-26T22:45:45.997Z,9.90
2022-08-26T22:48:13.840Z,9.67
2022-08-26T22:50:40.399Z,10.43
2022-08-26T22:53:08.411Z,10.03
2022-08-26T22:55:35.102Z,9.80
2022-08-26T22:58:01.687Z,9.37
2022-08-26T23:00:31.902Z,9.37
2022-08-26T23:02:59.561Z,9.63
2022-08-26T23:05:26.160Z,9.47
2022-08-26T23:07:52.724Z,9.57
2022-08-26T23:10:20.968Z,9.07
2022-08-26T23:12:47.526Z,9.57
2022-08-26T23:15:14.545Z,9.73
2022-08-26T23:17:42.885Z,9.43
2022-08-26T23:20:11.405Z,8.93
2022-08-26T23:22:38.683Z,9.40
2022-08-26T23:25:07.653Z,8.70
2022-08-26T23:27:37.320Z,8.17
2022-08-26T23:30:04.508Z,8.73
2022-08-26T23:32:31.060Z,8.27
2022-08-26T23:34:57.627Z,8.53
2022-08-26T23:37:26.413Z,8.20
2022-08-26T23:39:53.400Z,7.30
2022-08-26T23:42:20.122Z,7.80
2022-08-26T23:44:48.010Z,8.37
2022-08-26T23:47:15.630Z,8.97
2022-08-26T23:49:42.150Z,8.97
2022-08-26T23:52:09.162Z,8.63
2022-08-26T23:54:35.972Z,9.57
2022-08-26T23:57:02.539Z,9.53
2022-08-26T23:59:29.289Z,8.30
